Time;durP1;ratioP1;P1;durP2;ratioP2;P2;SDS_P1;SDS_P2;PMS_P1;PMS_P2;Temp;Humidity;BMP_temperature;BMP_pressure;BME280_temperature;BME280_humidity;BME280_pressure;Samples;Min_cycle;Max_cycle;Signal;HPM_P1;HPM_P2
2022/07/21 00:00:37;;;;;;;;;1.00;1.00;;;;;24.92;54.47;101662.25;5079348;27;45520;-76
2022/07/21 00:03:03;;;;;;;;;2.00;2.00;;;;;24.91;54.15;101647.75;5097366;27;45512;-76
2022/07/21 00:05:28;;;;;;;;;2.33;1.67;;;;;24.81;54.25;101636.78;5079147;27;45561;-76
2022/07/21 00:07:54;;;;;;;;;2.00;2.00;;;;;24.75;53.68;101628.31;5081448;27;45593;-76
2022/07/21 00:10:23;;;;;;;;;2.67;2.00;;;;;24.77;54.31;101631.75;5081179;27;45442;-83
2022/07/21 00:12:48;;;;;;;;;4.00;2.00;;;;;24.80;53.94;101635.06;5096971;27;46171;-83
2022/07/21 00:15:16;;;;;;;;;1.67;1.67;;;;;24.82;54.17;101641.25;5097388;27;45483;-84
2022/07/21 00:17:42;;;;;;;;;2.00;2.00;;;;;24.79;54.35;101646.13;5076660;27;45627;-83
2022/07/21 00:20:09;;;;;;;;;3.00;2.67;;;;;24.75;53.91;101631.91;5076924;27;45477;-84
2022/07/21 00:22:35;;;;;;;;;2.00;2.00;;;;;24.77;54.37;101642.66;5076571;27;46355;-83
2022/07/21 00:25:00;;;;;;;;;1.00;1.00;;;;;24.76;54.35;101646.41;5076673;27;45518;-84
2022/07/21 00:27:25;;;;;;;;;2.00;2.00;;;;;24.75;54.37;101640.09;5076911;27;45427;-83
2022/07/21 00:29:51;;;;;;;;;1.33;1.33;;;;;24.79;54.71;101646.13;5076874;27;45377;-84
2022/07/21 00:32:17;;;;;;;;;2.00;2.00;;;;;24.70;54.73;101627.84;5087143;27;46205;-83
2022/07/21 00:34:44;;;;;;;;;1.00;1.00;;;;;24.66;54.52;101626.44;5079890;27;45386;-83
2022/07/21 00:37:10;;;;;;;;;1.00;1.00;;;;;24.52;55.00;101605.84;5076567;27;45398;-84
2022/07/21 00:39:36;;;;;;;;;1.00;1.00;;;;;24.70;54.61;101641.47;5076668;27;45439;-84
2022/07/21 00:42:01;;;;;;;;;2.00;2.00;;;;;24.68;54.68;101646.19;5094159;27;46366;-83
2022/07/21 00:44:27;;;;;;;;;2.33;2.33;;;;;24.66;55.23;101634.59;5109515;27;45466;-84
2022/07/21 00:46:53;;;;;;;;;2.00;2.00;;;;;24.43;54.94;101605.63;5106982;27;45477;-84
2022/07/21 00:49:19;;;;;;;;;3.00;1.67;;;;;24.50;55.52;101622.31;5090793;27;45600;-84
2022/07/21 00:51:45;;;;;;;;;3.00;3.00;;;;;24.59;55.59;101642.47;5098685;27;46454;-83
2022/07/21 00:54:11;;;;;;;;;2.33;2.33;;;;;24.43;55.12;101621.13;5074875;27;45467;-83
2022/07/21 00:56:37;;;;;;;;;2.00;2.00;;;;;24.54;55.70;101636.56;5076271;27;45617;-83
2022/07/21 00:59:03;;;;;;;;;4.00;3.00;;;;;24.52;55.77;101639.41;5100764;27;45486;-83
2022/07/21 01:01:28;;;;;;;;;4.67;3.33;;;;;24.50;55.88;101637.81;5078306;27;46088;-83
2022/07/21 01:03:54;;;;;;;;;2.00;2.00;;;;;24.48;55.82;101645.28;5076174;27;45401;-83
2022/07/21 01:06:19;;;;;;;;;1.67;1.67;;;;;24.46;55.83;101637.19;5078552;27;45528;-84
2022/07/21 01:08:45;;;;;;;;;2.00;1.00;;;;;24.40;55.52;101633.16;5096718;27;45487;-76
2022/07/21 01:11:10;;;;;;;;;2.67;2.67;;;;;24.40;55.75;101644.06;5081330;27;45375;-76
2022/07/21 01:13:41;;;;;;;;;2.67;2.67;;;;;24.38;56.19;101640.59;5075892;27;45337;-75
2022/07/21 01:16:07;;;;;;;;;1.33;1.33;;;;;24.34;55.68;101636.41;5100021;27;45444;-75
2022/07/21 01:18:33;;;;;;;;;1.33;1.33;;;;;24.37;55.60;101647.06;5078144;27;45331;-75
2022/07/21 01:21:06;;;;;;;;;2.00;2.00;;;;;24.37;55.86;101643.44;5075809;27;46283;-75
2022/07/21 01:23:32;;;;;;;;;2.00;2.00;;;;;24.34;55.85;101638.28;5075574;27;45580;-75
2022/07/21 01:25:58;;;;;;;;;3.00;1.67;;;;;24.28;55.99;101638.81;5057673;28;45443;-76
2022/07/21 01:28:23;;;;;;;;;4.00;2.00;;;;;24.22;56.33;101632.03;5070434;27;45377;-76
2022/07/21 01:30:48;;;;;;;;;3.67;3.00;;;;;24.24;56.39;101635.50;5075303;27;46214;-75
2022/07/21 01:33:14;;;;;;;;;2.00;2.00;;;;;24.24;56.71;101627.31;5075775;27;45478;-76
2022/07/21 01:35:39;;;;;;;;;2.00;2.00;;;;;24.21;56.81;101628.47;5090148;27;45579;-76
2022/07/21 01:41:28;;;;;;;;;4.00;2.00;;;;;24.08;56.60;101603.28;5058032;28;45536;-76
2022/07/21 01:43:42;;;;;;;;;3.00;2.00;;;;;24.15;57.09;101619.97;5075166;27;45367;-76
2022/07/21 01:46:11;;;;;;;;;3.00;3.00;;;;;24.10;56.72;101612.19;5085215;27;45438;-76
2022/07/21 01:48:41;;;;;;;;;3.00;3.00;;;;;24.09;56.73;101617.75;5075886;27;45510;-76
2022/07/21 01:51:06;;;;;;;;;3.00;2.00;;;;;24.05;56.81;101611.72;5102079;27;45651;-76
2022/07/21 01:53:33;;;;;;;;;2.00;2.00;;;;;24.06;56.78;101623.47;5075460;27;45426;-76
2022/07/21 01:55:58;;;;;;;;;2.67;2.67;;;;;24.07;57.33;101631.53;5079408;27;45612;-75
2022/07/21 01:58:24;;;;;;;;;3.00;2.00;;;;;24.03;57.38;101624.63;5067469;28;45541;-76
2022/07/21 02:00:49;;;;;;;;;2.00;2.00;;;;;24.06;57.24;101628.94;5073568;27;48290;-76
2022/07/21 02:03:14;;;;;;;;;2.33;2.33;;;;;24.05;57.60;101643.56;5075364;27;45498;-75
2022/07/21 02:05:39;;;;;;;;;1.00;1.00;;;;;24.04;57.10;101648.13;5070724;28;45511;-75
2022/07/21 02:08:05;;;;;;;;;3.67;3.00;;;;;24.04;57.22;101647.25;5089154;27;45523;-75
2022/07/21 02:10:30;;;;;;;;;2.00;2.00;;;;;23.99;57.21;101640.34;5078873;27;46228;-76
2022/07/21 02:12:57;;;;;;;;;3.33;3.00;;;;;23.99;57.56;101642.22;5078457;27;45566;-76
2022/07/21 02:15:22;;;;;;;;;3.00;3.00;;;;;23.93;57.27;101631.88;5078836;27;45857;-76
2022/07/21 02:17:48;;;;;;;;;4.00;3.00;;;;;23.98;57.78;101644.06;5078932;27;45543;-75
2022/07/21 02:20:13;;;;;;;;;3.33;2.67;;;;;23.95;57.77;101647.06;5078515;27;46902;-76
2022/07/21 02:22:38;;;;;;;;;2.00;2.00;;;;;23.93;57.87;101643.63;5078607;27;45482;-76
2022/07/21 02:25:04;;;;;;;;;2.33;2.33;;;;;23.92;57.36;101647.31;5078587;27;45787;-75
2022/07/21 02:27:29;;;;;;;;;3.67;2.67;;;;;23.90;58.01;101632.09;5090333;27;45402;-76
2022/07/21 02:29:55;;;;;;;;;4.00;4.00;;;;;23.89;57.89;101639.41;5062655;28;48628;-76
2022/07/21 02:32:20;;;;;;;;;2.33;2.33;;;;;23.91;57.56;101647.47;5078557;27;45471;-76
2022/07/21 02:34:45;;;;;;;;;3.00;3.00;;;;;23.89;58.25;101646.72;5078309;27;45571;-76
2022/07/21 02:37:11;;;;;;;;;4.00;4.00;;;;;23.87;57.89;101651.44;5078705;27;45521;-75
2022/07/21 02:39:36;;;;;;;;;1.67;1.67;;;;;23.85;57.51;101656.16;5091874;27;45498;-76
2022/07/21 02:42:02;;;;;;;;;2.33;2.33;;;;;23.78;57.66;101643.06;5079002;27;45686;-75
2022/07/21 02:44:29;;;;;;;;;2.67;2.67;;;;;23.82;57.75;101649.13;5081885;27;45487;-75
2022/07/21 02:46:54;;;;;;;;;3.00;3.00;;;;;23.85;57.61;101653.44;5081369;27;45626;-76
2022/07/21 02:49:19;;;;;;;;;3.00;3.00;;;;;23.86;57.76;101658.75;5090952;27;46049;-76
2022/07/21 02:51:45;;;;;;;;;4.00;4.00;;;;;23.86;57.19;101653.31;5096187;27;45372;-75
2022/07/21 02:54:10;;;;;;;;;3.67;3.67;;;;;23.88;57.59;101661.31;5078116;27;45531;-75
2022/07/21 02:56:36;;;;;;;;;3.67;3.67;;;;;23.87;57.40;101668.63;5087692;27;45407;-75
2022/07/21 02:59:01;;;;;;;;;5.00;4.00;;;;;23.88;57.41;101664.94;5076443;27;46188;-76
2022/07/21 03:01:26;;;;;;;;;3.00;3.00;;;;;23.86;56.70;101666.91;5085343;27;45430;-76
2022/07/21 03:03:52;;;;;;;;;4.00;4.00;;;;;23.75;56.82;101653.34;5098744;27;45358;-75
2022/07/21 03:06:17;;;;;;;;;3.67;3.67;;;;;23.85;57.25;101670.63;5079859;27;45425;-76
2022/07/21 03:08:42;;;;;;;;;6.67;4.33;;;;;23.84;56.78;101662.59;5087066;27;47273;-76
2022/07/21 03:11:08;;;;;;;;;8.33;6.00;;;;;23.80;56.67;101667.44;5080338;27;45414;-75
2022/07/21 03:13:33;;;;;;;;;1.67;1.67;;;;;23.78;57.25;101663.97;5089802;27;45473;-75
2022/07/21 03:15:59;;;;;;;;;4.33;3.33;;;;;23.76;56.89;101672.28;5071162;27;45439;-75
2022/07/21 03:18:24;;;;;;;;;5.67;5.67;;;;;23.75;56.73;101667.81;5091331;27;47191;-75
2022/07/21 03:20:50;;;;;;;;;6.00;4.00;;;;;23.73;57.19;101674.38;5077728;27;45577;-75
2022/07/21 03:23:15;;;;;;;;;7.00;7.00;;;;;23.69;57.20;101671.03;5077758;27;45458;-75
2022/07/21 03:25:40;;;;;;;;;8.67;8.67;;;;;23.61;57.14;101668.09;5059520;28;45842;-75
2022/07/21 03:28:07;;;;;;;;;7.00;7.00;;;;;23.60;57.04;101672.69;5072397;27;45775;-75
2022/07/21 03:30:32;;;;;;;;;10.00;8.67;;;;;23.61;56.79;101681.72;5086200;27;45462;-75
2022/07/21 03:32:58;;;;;;;;;6.33;6.33;;;;;23.60;56.81;101688.16;5083193;27;45601;-75
2022/07/21 03:35:23;;;;;;;;;6.67;6.67;;;;;23.48;56.99;101678.28;5059638;28;45476;-75
2022/07/21 03:37:53;;;;;;;;;8.00;8.00;;;;;23.54;57.45;101689.53;5068285;27;46147;-76
2022/07/21 03:40:22;;;;;;;;;9.33;7.67;;;;;23.52;57.61;101688.78;5082111;27;45502;-76
2022/07/21 03:42:49;;;;;;;;;6.00;6.00;;;;;23.39;57.17;101672.63;5096626;27;45405;-76
2022/07/21 03:45:15;;;;;;;;;8.00;8.00;;;;;23.44;57.35;101676.81;5086702;27;45408;-76
2022/07/21 03:47:40;;;;;;;;;8.67;8.33;;;;;23.48;57.77;101686.44;5077078;27;46177;-75
2022/07/21 03:50:06;;;;;;;;;8.33;8.33;;;;;23.50;58.09;101690.75;5098899;27;45398;-76
2022/07/21 03:52:32;;;;;;;;;8.00;8.00;;;;;23.47;57.94;101690.16;5081945;27;45398;-76
2022/07/21 03:55:10;;;;;;;;;6.67;6.67;;;;;23.48;57.93;101698.19;5077326;27;45308;-75
2022/07/21 03:57:40;;;;;;;;;6.67;6.67;;;;;23.42;57.96;101685.09;5080138;27;45535;-76
2022/07/21 04:00:10;;;;;;;;;10.67;9.00;;;;;23.48;57.36;101695.47;5087390;27;45762;-75
2022/07/21 04:02:35;;;;;;;;;9.67;9.67;;;;;23.37;57.62;101676.47;5073131;27;45588;-75
2022/07/21 04:05:03;;;;;;;;;8.67;8.67;;;;;23.46;57.50;101689.31;5077381;27;45462;-76
2022/07/21 04:07:28;;;;;;;;;10.33;10.33;;;;;23.47;57.43;101696.47;5068474;27;48380;-76
2022/07/21 04:09:54;;;;;;;;;8.33;8.00;;;;;23.41;57.76;101685.22;5076763;27;45520;-82
2022/07/21 04:12:19;;;;;;;;;10.00;10.00;;;;;23.37;57.98;101690.06;5071619;27;45537;-83
2022/07/21 04:14:44;;;;;;;;;16.33;13.00;;;;;23.48;57.64;101700.03;5078496;27;45572;-82
2022/07/21 04:17:10;;;;;;;;;14.33;12.00;;;;;23.45;58.11;101692.16;5065911;28;47899;-82
2022/07/21 04:19:35;;;;;;;;;7.33;7.33;;;;;23.46;57.97;101700.19;5075219;27;45477;-82
2022/07/21 04:22:00;;;;;;;;;12.00;11.00;;;;;23.48;57.42;101706.34;5076742;27;45381;-83
2022/07/21 04:24:26;;;;;;;;;10.00;10.00;;;;;23.48;58.16;101709.06;5058946;27;45531;-83
2022/07/21 04:26:51;;;;;;;;;12.67;10.00;;;;;23.49;58.03;101709.97;5076558;27;46282;-83
2022/07/21 04:29:16;;;;;;;;;10.67;8.67;;;;;23.49;57.80;101712.69;5050511;28;45439;-84
2022/07/21 04:31:42;;;;;;;;;9.67;9.33;;;;;23.49;58.14;101709.97;5080427;27;45572;-83
2022/07/21 04:34:07;;;;;;;;;10.33;9.67;;;;;23.48;57.60;101719.94;5097396;27;45523;-83
2022/07/21 04:36:32;;;;;;;;;12.67;10.33;;;;;23.49;57.60;101715.41;5094578;27;47274;-85
2022/07/21 04:38:58;;;;;;;;;12.00;11.00;;;;;23.53;57.55;101719.56;5076340;27;45387;-84
2022/07/21 04:41:23;;;;;;;;;11.33;9.33;;;;;23.51;57.97;101717.00;5090874;27;45794;-83
2022/07/21 04:43:48;;;;;;;;;13.67;11.67;;;;;23.35;58.04;101692.06;5076615;27;45727;-82
2022/07/21 04:46:15;;;;;;;;;11.33;11.00;;;;;23.44;57.77;101710.34;5082982;27;46247;-83
2022/07/21 04:48:40;;;;;;;;;11.00;11.00;;;;;23.47;58.03;101718.25;5090551;27;45478;-83
2022/07/21 04:51:06;;;;;;;;;9.67;8.00;;;;;23.48;57.72;101716.38;5102896;27;45521;-83
2022/07/21 04:53:31;;;;;;;;;12.00;11.00;;;;;23.47;58.34;101714.66;5076401;27;45477;-83
2022/07/21 04:55:57;;;;;;;;;14.67;12.33;;;;;23.47;58.22;101725.53;5076249;27;45516;-84
2022/07/21 04:58:22;;;;;;;;;12.00;10.67;;;;;23.39;57.86;101708.00;5086377;27;45542;-83
2022/07/21 05:00:48;;;;;;;;;11.33;10.67;;;;;23.48;58.22;101721.81;5080506;27;45436;-85
2022/07/21 05:03:13;;;;;;;;;13.67;11.33;;;;;23.38;58.19;101711.69;5076702;27;45409;-84
2022/07/21 05:05:39;;;;;;;;;14.33;11.00;;;;;23.48;58.23;101724.53;5075829;27;45853;-83
2022/07/21 05:08:04;;;;;;;;;12.00;10.00;;;;;23.46;58.17;101724.69;5089911;27;45786;-83
2022/07/21 05:10:30;;;;;;;;;11.33;11.33;;;;;23.23;57.69;101682.19;5076293;27;45399;-76
2022/07/21 05:12:55;;;;;;;;;10.33;10.33;;;;;23.54;58.04;101727.63;5090309;27;45536;-75
2022/07/21 05:15:21;;;;;;;;;16.67;13.00;;;;;23.54;57.52;101733.06;5076008;27;45439;-75
2022/07/21 05:17:46;;;;;;;;;10.00;9.67;;;;;23.56;58.06;101732.94;5090138;27;45491;-75
2022/07/21 05:20:12;;;;;;;;;15.00;12.00;;;;;23.55;58.03;101728.47;5075864;27;45502;-75
2022/07/21 05:22:38;;;;;;;;;11.33;11.33;;;;;23.60;57.69;101739.88;5076469;27;45451;-75
2022/07/21 05:25:04;;;;;;;;;13.67;11.00;;;;;23.58;57.40;101740.00;5080946;27;46229;-75
2022/07/21 05:27:29;;;;;;;;;12.33;11.00;;;;;23.58;57.70;101737.28;5084115;27;45540;-75
2022/07/21 05:29:55;;;;;;;;;13.67;12.00;;;;;23.59;57.54;101735.41;5090426;27;45400;-75
2022/07/21 05:32:21;;;;;;;;;14.67;12.00;;;;;23.62;57.51;101739.72;5076491;27;45484;-76
2022/07/21 05:34:46;;;;;;;;;13.67;10.33;;;;;23.62;57.58;101735.13;5075377;27;46289;-75
2022/07/21 05:37:12;;;;;;;;;11.67;8.33;;;;;23.66;58.09;101738.47;5057566;28;45468;-76
2022/07/21 05:39:37;;;;;;;;;11.00;8.67;;;;;23.66;57.38;101742.06;5075154;27;45517;-76
2022/07/21 05:42:02;;;;;;;;;11.33;11.33;;;;;23.66;58.16;101739.34;5075650;27;45505;-76
2022/07/21 05:44:28;;;;;;;;;12.33;10.67;;;;;23.69;57.28;101732.78;5079004;27;46248;-76
2022/07/21 05:46:53;;;;;;;;;11.00;11.00;;;;;23.72;57.26;101744.28;5073954;27;46076;-76
2022/07/21 05:49:18;;;;;;;;;13.00;13.00;;;;;23.66;57.90;101730.31;5087871;27;45500;-75
2022/07/21 05:51:44;;;;;;;;;14.00;11.67;;;;;23.72;57.86;101743.44;5083497;27;45638;-75
2022/07/21 05:54:09;;;;;;;;;16.00;12.33;;;;;23.67;57.76;101735.66;5075048;27;45454;-76
2022/07/21 05:56:34;;;;;;;;;11.33;11.00;;;;;23.75;57.61;101749.50;5075488;27;45448;-76
2022/07/21 05:59:00;;;;;;;;;17.00;11.00;;;;;23.65;57.82;101728.56;5076269;27;45526;-75
2022/07/21 06:01:25;;;;;;;;;15.67;14.67;;;;;23.82;57.64;101765.34;5089365;27;45500;-76
2022/07/21 06:03:51;;;;;;;;;15.00;13.00;;;;;23.85;57.81;101756.91;5074880;27;47270;-75
2022/07/21 06:06:19;;;;;;;;;13.67;11.33;;;;;23.90;57.13;101751.91;5075440;27;45839;-75
2022/07/21 06:08:46;;;;;;;;;17.00;11.00;;;;;23.91;57.24;101753.66;5084412;27;45462;-75
2022/07/21 06:11:14;;;;;;;;;12.67;12.33;;;;;23.96;56.91;101755.00;5078635;27;45479;-75
2022/07/21 06:13:40;;;;;;;;;17.00;14.00;;;;;23.98;57.29;101758.47;5085499;27;45505;-75
2022/07/21 06:16:07;;;;;;;;;13.67;13.67;;;;;24.05;57.21;101756.09;5074593;27;45459;-75
2022/07/21 06:18:32;;;;;;;;;13.00;10.33;;;;;24.06;57.36;101754.22;5083000;27;45458;-75
2022/07/21 06:20:57;;;;;;;;;13.33;12.00;;;;;24.11;56.59;101752.81;5077264;27;45401;-76
2022/07/21 06:23:23;;;;;;;;;16.00;12.00;;;;;24.10;56.86;101753.81;5075181;27;46173;-76
2022/07/21 06:25:50;;;;;;;;;10.67;10.67;;;;;24.10;56.78;101750.25;5074906;27;45378;-75
2022/07/21 06:28:15;;;;;;;;;11.67;11.67;;;;;24.12;56.45;101754.56;5078651;27;45454;-76
2022/07/21 06:30:41;;;;;;;;;15.00;14.00;;;;;24.07;56.68;101745.94;5085696;27;45564;-75
2022/07/21 06:33:06;;;;;;;;;13.67;12.00;;;;;24.13;56.71;101752.69;5086059;27;45729;-75
2022/07/21 06:35:32;;;;;;;;;12.00;11.33;;;;;24.19;56.37;101755.78;5076089;27;45454;-74
2022/07/21 06:37:57;;;;;;;;;13.67;11.67;;;;;24.22;56.29;101758.22;5096221;27;46322;-79
2022/07/21 06:40:23;;;;;;;;;11.67;11.33;;;;;24.38;56.68;101768.69;5087505;27;45436;-76
2022/07/21 06:42:48;;;;;;;;;13.67;10.33;;;;;24.44;56.27;101768.16;5088689;27;45411;-76
2022/07/21 06:45:14;;;;;;;;;13.00;12.00;;;;;24.37;55.59;101747.88;5090010;27;46529;-76
2022/07/21 06:47:40;;;;;;;;;12.67;11.67;;;;;24.49;55.74;101756.00;5088233;27;45406;-76
2022/07/21 06:50:06;;;;;;;;;14.67;14.67;;;;;24.55;55.90;101767.25;5101260;27;45634;-77
2022/07/21 06:52:33;;;;;;;;;12.67;11.00;;;;;24.51;55.73;101748.56;5095187;27;45489;-77
2022/07/21 06:54:59;;;;;;;;;15.33;14.00;;;;;24.70;55.54;101766.91;5083279;27;46737;-77
2022/07/21 06:57:24;;;;;;;;;15.67;15.00;;;;;24.73;55.32;101767.50;5079620;27;45454;-77
2022/07/21 06:59:50;;;;;;;;;14.33;11.33;;;;;24.68;54.92;101749.81;5098156;27;45667;-77
2022/07/21 07:02:15;;;;;;;;;11.67;10.67;;;;;24.80;54.96;101767.84;5079037;27;47507;-77
2022/07/21 07:04:41;;;;;;;;;12.00;10.33;;;;;24.75;54.87;101751.03;5097716;27;45406;-77
2022/07/21 07:07:07;;;;;;;;;13.33;11.00;;;;;24.89;54.43;101774.31;5079035;27;45782;-81
2022/07/21 07:09:32;;;;;;;;;12.33;11.67;;;;;24.89;54.92;101774.31;5098215;27;45492;-76
2022/07/21 07:12:03;;;;;;;;;13.00;11.33;;;;;24.89;54.83;101779.78;5097829;27;45864;-75
2022/07/21 07:14:33;;;;;;;;;13.67;12.33;;;;;24.70;55.79;101788.72;5096976;27;45336;-71
2022/07/21 07:16:59;;;;;;;;;15.67;14.00;;;;;24.72;55.18;101782.13;5096649;27;45544;-71
2022/07/21 07:19:24;;;;;;;;;14.33;13.00;;;;;24.70;55.43;101789.59;5098175;27;45538;-71
2022/07/21 07:21:50;;;;;;;;;14.67;14.67;;;;;24.65;55.36;101789.13;5094727;27;46223;-71
2022/07/21 07:24:15;;;;;;;;;14.33;14.33;;;;;24.61;55.97;101788.53;5086658;27;45586;-71
2022/07/21 07:26:41;;;;;;;;;11.00;9.67;;;;;24.65;55.83;101800.03;5098052;27;45423;-72
2022/07/21 07:29:07;;;;;;;;;11.33;11.33;;;;;24.71;56.29;101795.91;5090948;27;45488;-71
2022/07/21 07:31:32;;;;;;;;;14.00;13.33;;;;;24.80;56.02;101795.97;5077364;27;46004;-71
2022/07/21 07:33:58;;;;;;;;;16.00;14.67;;;;;24.96;55.45;101791.88;5096512;27;45508;-71
2022/07/21 07:36:25;;;;;;;;;16.67;13.67;;;;;25.08;55.22;101795.41;5098158;27;45518;-71
2022/07/21 07:38:51;;;;;;;;;16.33;13.67;;;;;25.13;55.07;101787.69;5082674;27;45508;-71
2022/07/21 07:41:21;;;;;;;;;13.00;12.33;;;;;25.23;54.86;101791.34;5079203;27;47450;-71
2022/07/21 07:43:47;;;;;;;;;14.33;13.33;;;;;25.45;54.21;101792.97;5079121;27;45420;-71
2022/07/21 07:46:13;;;;;;;;;17.00;15.33;;;;;25.42;53.43;101780.47;5061871;27;45476;-73
2022/07/21 07:48:40;;;;;;;;;13.67;13.00;;;;;25.47;53.55;101800.06;5097918;27;45440;-71
2022/07/21 07:51:05;;;;;;;;;14.67;13.67;;;;;25.48;53.65;101801.78;5110451;27;46416;-71
2022/07/21 07:53:30;;;;;;;;;13.00;12.00;;;;;25.39;54.04;101804.47;5079109;27;45484;-71
2022/07/21 07:55:56;;;;;;;;;16.67;14.00;;;;;25.34;54.40;101791.25;5061416;28;45483;-71
2022/07/21 07:58:21;;;;;;;;;17.00;15.00;;;;;25.44;53.79;101803.03;5077246;27;45448;-71
2022/07/21 08:00:46;;;;;;;;;17.67;14.67;;;;;25.47;54.26;101799.16;5090856;27;46124;-71
2022/07/21 08:03:12;;;;;;;;;12.67;12.67;;;;;25.52;53.47;101805.09;5076599;27;45461;-72
2022/07/21 08:05:38;;;;;;;;;29.33;26.00;;;;;25.15;54.70;101802.91;5076972;27;45582;-73
2022/07/21 08:08:03;;;;;;;;;15.33;15.33;;;;;25.00;54.53;101790.63;5091186;27;45473;-72
2022/07/21 08:10:29;;;;;;;;;20.00;15.00;;;;;25.23;54.33;101803.09;5076850;27;47384;-73
2022/07/21 08:12:55;;;;;;;;;24.67;16.33;;;;;25.33;54.26;101808.59;5076534;27;45496;-73
2022/07/21 08:15:20;;;;;;;;;17.33;16.67;;;;;25.30;53.35;101797.13;5076782;27;45469;-73
2022/07/21 08:17:46;;;;;;;;;17.33;16.00;;;;;25.42;53.39;101821.44;5077189;27;45331;-73
2022/07/21 08:20:11;;;;;;;;;19.00;17.67;;;;;25.46;53.55;101819.28;5058211;28;46926;-73
2022/07/21 08:22:36;;;;;;;;;19.33;19.00;;;;;25.55;53.10;101817.63;5076708;27;45443;-74
2022/07/21 08:25:02;;;;;;;;;18.00;17.33;;;;;25.64;53.48;101817.63;5090843;27;45959;-72
2022/07/21 08:27:28;;;;;;;;;18.00;17.33;;;;;25.64;52.90;101816.78;5076768;27;45371;-74
2022/07/21 08:29:53;;;;;;;;;20.33;17.00;;;;;25.59;52.82;101810.84;5076114;27;46739;-72
2022/07/21 08:32:19;;;;;;;;;15.33;14.00;;;;;25.84;52.15;101831.34;5076461;27;45446;-73
2022/07/21 08:34:45;;;;;;;;;15.33;14.67;;;;;25.84;51.75;101804.88;5076351;27;45926;-74
2022/07/21 08:37:10;;;;;;;;;19.00;14.33;;;;;26.07;51.48;101819.19;5076798;27;45507;-74
2022/07/21 08:39:35;;;;;;;;;16.67;14.00;;;;;26.40;51.87;101825.25;5075923;27;45834;-73
2022/07/21 08:42:01;;;;;;;;;16.67;15.00;;;;;26.66;50.48;101824.69;5057919;28;45525;-73
2022/07/21 08:44:27;;;;;;;;;14.00;12.67;;;;;26.79;49.63;101810.72;5087750;27;45426;-75
2022/07/21 08:46:52;;;;;;;;;17.33;14.00;;;;;26.91;49.96;101820.47;5079277;27;45604;-72
2022/07/21 08:49:22;;;;;;;;;16.00;13.00;;;;;26.82;49.78;101810.41;5065913;27;45597;-74
2022/07/21 08:51:48;;;;;;;;;18.33;15.33;;;;;26.77;50.00;101823.66;5092033;27;46797;-74
2022/07/21 08:54:14;;;;;;;;;20.00;17.33;;;;;26.98;49.21;101818.88;5075952;27;45425;-73
2022/07/21 08:56:39;;;;;;;;;15.33;14.67;;;;;27.64;47.82;101817.91;5076348;27;45699;-73
2022/07/21 08:59:05;;;;;;;;;18.33;18.33;;;;;27.36;48.24;101800.59;5075455;27;47155;-72
2022/07/21 09:01:31;;;;;;;;;14.00;12.33;;;;;27.63;48.17;101813.44;5075663;27;45771;-73
2022/07/21 09:04:33;;;;;;;;;15.33;14.67;;;;;27.77;47.04;101815.66;5076185;27;45462;-73
2022/07/21 09:07:04;;;;;;;;;22.33;17.00;;;;;27.52;46.92;101819.97;5082439;27;45614;-71
2022/07/21 09:09:32;;;;;;;;;17.00;16.00;;;;;27.27;47.59;101815.19;5077958;27;46343;-73
2022/07/21 09:11:59;;;;;;;;;21.33;16.00;;;;;27.06;48.38;101821.69;5085547;27;45451;-78
2022/07/21 09:14:29;;;;;;;;;19.00;15.33;;;;;26.94;48.89;101811.94;5079122;27;45567;-74
2022/07/21 09:16:57;;;;;;;;;16.00;13.33;;;;;26.96;49.50;101826.34;5057639;28;45667;-72
2022/07/21 09:19:27;;;;;;;;;16.67;14.67;;;;;26.89;49.45;101828.81;5089531;27;46302;-72
2022/07/21 09:21:55;;;;;;;;;19.00;15.33;;;;;26.84;49.89;101820.19;5075572;27;45427;-72
2022/07/21 09:24:29;;;;;;;;;15.67;15.00;;;;;26.84;49.56;101824.81;5087903;27;45493;-73
2022/07/21 09:27:17;;;;;;;;;14.33;14.33;;;;;26.61;49.58;101827.84;5074881;27;45590;-72
2022/07/21 09:29:55;;;;;;;;;14.00;13.00;;;;;26.37;49.94;101828.28;5093519;27;47427;-73
2022/07/21 09:32:30;;;;;;;;;34.33;31.00;;;;;26.24;50.17;101834.00;5083637;27;45449;-72
2022/07/21 09:35:04;;;;;;;;;18.00;16.33;;;;;26.18;50.32;101831.88;5069137;27;45556;-73
2022/07/21 09:37:30;;;;;;;;;16.00;16.00;;;;;26.33;51.11;101824.94;5081441;27;45475;-72
2022/07/21 09:40:07;;;;;;;;;22.67;18.33;;;;;26.39;50.52;101833.59;5078620;27;45488;-73
2022/07/21 09:42:36;;;;;;;;;18.33;16.33;;;;;26.99;48.98;101834.25;5095068;27;45589;-73
2022/07/21 09:45:06;;;;;;;;;13.33;13.33;;;;;27.21;47.59;101832.22;5095277;27;45596;-70
2022/07/21 09:47:32;;;;;;;;;15.67;14.00;;;;;27.73;47.02;101829.81;5095166;27;45575;-69
2022/07/21 09:49:59;;;;;;;;;16.00;13.00;;;;;27.91;46.66;101822.53;5099766;27;46425;-70
2022/07/21 09:52:33;;;;;;;;;17.00;15.00;;;;;28.00;47.12;101837.16;5083198;27;45446;-70
2022/07/21 09:55:02;;;;;;;;;14.33;13.67;;;;;27.79;46.92;101827.34;5077735;27;45526;-70
2022/07/21 09:57:28;;;;;;;;;11.00;11.00;;;;;28.08;46.61;101823.56;5074818;27;45485;-70
2022/07/21 09:59:53;;;;;;;;;14.67;14.33;;;;;28.79;44.99;101810.81;5089954;27;46430;-70
2022/07/21 10:02:25;;;;;;;;;12.00;12.00;;;;;28.41;44.84;101812.91;5094645;27;46534;-71
2022/07/21 10:04:57;;;;;;;;;13.67;13.67;;;;;28.11;45.77;101815.00;5061112;28;45451;-71
2022/07/21 10:07:24;;;;;;;;;15.00;12.33;;;;;29.99;43.99;101826.41;5087045;27;45559;-71
2022/07/21 10:09:50;;;;;;;;;16.00;13.00;;;;;31.59;39.32;101811.16;5091223;27;46190;-71
2022/07/21 10:12:16;;;;;;;;;14.00;14.00;;;;;33.26;36.16;101803.97;5089187;27;45505;-70
2022/07/21 10:14:43;;;;;;;;;12.33;10.67;;;;;31.78;38.15;101803.47;5082284;27;45392;-71
2022/07/21 10:17:08;;;;;;;;;14.33;13.33;;;;;32.09;37.99;101796.03;5089176;27;45533;-71
2022/07/21 10:19:51;;;;;;;;;11.67;11.67;;;;;31.46;39.14;101778.63;5060530;27;45957;-70
2022/07/21 10:22:25;;;;;;;;;10.67;10.33;;;;;33.55;36.95;101821.56;5072568;27;45591;-71
2022/07/21 10:24:52;;;;;;;;;11.67;11.67;;;;;36.58;30.83;101818.63;5091174;27;45518;-71
2022/07/21 10:27:17;;;;;;;;;9.33;9.33;;;;;38.22;28.92;101819.41;5083878;27;45441;-71
2022/07/21 10:29:55;;;;;;;;;7.33;7.33;;;;;37.95;28.53;101815.91;5081127;27;45902;-71
2022/07/21 10:32:24;;;;;;;;;13.67;12.33;;;;;36.06;31.67;101826.63;5084784;27;45561;-70
2022/07/21 10:34:50;;;;;;;;;10.00;9.00;;;;;37.85;28.70;101823.91;5093338;27;45522;-71
2022/07/21 10:37:40;;;;;;;;;10.67;9.67;;;;;39.31;26.99;101821.88;5098758;27;45333;-71
2022/07/21 10:40:26;;;;;;;;;9.67;9.67;;;;;38.51;27.04;101814.28;5079401;27;45552;-71
2022/07/21 10:43:01;;;;;;;;;11.67;9.67;;;;;37.84;28.77;101828.63;5089309;27;45878;-71
2022/07/21 10:45:42;;;;;;;;;10.67;9.00;;;;;38.23;27.30;101829.47;5089647;27;45450;-70
2022/07/21 10:48:37;;;;;;;;;10.33;10.00;;;;;38.32;27.29;101810.56;5073934;27;45424;-72
2022/07/21 10:51:04;;;;;;;;;11.00;9.67;;;;;38.54;27.51;101817.47;5096554;27;45500;-72
2022/07/21 10:53:29;;;;;;;;;7.00;7.00;;;;;37.67;28.41;101813.50;5058181;27;45457;-72
2022/07/21 10:55:55;;;;;;;;;12.67;10.67;;;;;36.87;28.64;101814.53;5062127;28;45510;-72
2022/07/21 10:58:27;;;;;;;;;20.00;17.33;;;;;36.83;29.38;101821.63;5085208;27;45537;-70
2022/07/21 11:00:52;;;;;;;;;10.00;10.00;;;;;36.23;30.20;101812.38;5090392;27;45509;-72
2022/07/21 11:03:28;;;;;;;;;9.00;9.00;;;;;35.30;31.00;101813.69;5084484;27;45461;-71
2022/07/21 11:06:05;;;;;;;;;10.00;10.00;;;;;34.45;31.59;101815.59;5080936;27;45895;-72
2022/07/21 11:08:32;;;;;;;;;9.33;8.67;;;;;34.44;31.70;101819.44;5096882;27;45618;-70
2022/07/21 11:11:08;;;;;;;;;12.00;12.00;;;;;34.06;32.41;101819.66;5097772;27;45629;-73
2022/07/21 11:14:04;;;;;;;;;8.00;8.00;;;;;33.91;33.44;101818.00;5073457;27;45482;-71
2022/07/21 11:16:56;;;;;;;;;15.00;12.33;;;;;33.70;33.58;101819.66;5086509;27;45501;-72
2022/07/21 11:19:38;;;;;;;;;13.67;13.67;;;;;33.07;33.82;101827.50;5083494;27;45559;-72